sensor_id;sensor_type;location;lat;lon;timestamp;P1;durP1;ratioP1;P2;durP2;ratioP2
39044;SDS011;52192;52.002;5.956;2023-02-24T00:01:22;3.72;;;1.67;;
39044;SDS011;52192;52.002;5.956;2023-02-24T00:03:58;2.92;;;1.13;;
39044;SDS011;52192;52.002;5.956;2023-02-24T00:06:25;3.25;;;1.92;;
39044;SDS011;52192;52.002;5.956;2023-02-24T00:09:00;5.22;;;1.17;;
39044;SDS011;52192;52.002;5.956;2023-02-24T00:11:26;1.25;;;0.73;;
39044;SDS011;52192;52.002;5.956;2023-02-24T00:13:52;1.75;;;1.30;;
39044;SDS011;52192;52.002;5.956;2023-02-24T00:16:18;4.43;;;1.42;;
39044;SDS011;52192;52.002;5.956;2023-02-24T00:18:44;1.13;;;0.98;;
39044;SDS011;52192;52.002;5.956;2023-02-24T00:21:11;2.33;;;1.23;;
39044;SDS011;52192;52.002;5.956;2023-02-24T00:23:40;2.38;;;1.05;;
39044;SDS011;52192;52.002;5.956;2023-02-24T00:26:07;3.30;;;1.40;;
39044;SDS011;52192;52.002;5.956;2023-02-24T00:28:35;8.18;;;1.67;;
39044;SDS011;52192;52.002;5.956;2023-02-24T00:31:01;3.53;;;1.63;;
39044;SDS011;52192;52.002;5.956;2023-02-24T00:33:32;2.13;;;1.23;;
39044;SDS011;52192;52.002;5.956;2023-02-24T00:36:09;2.25;;;1.48;;
39044;SDS011;52192;52.002;5.956;2023-02-24T00:38:41;0.90;;;0.77;;
39044;SDS011;52192;52.002;5.956;2023-02-24T00:41:11;2.35;;;1.00;;
39044;SDS011;52192;52.002;5.956;2023-02-24T00:43:43;2.78;;;0.85;;
39044;SDS011;52192;52.002;5.956;2023-02-24T00:46:16;4.10;;;0.98;;
39044;SDS011;52192;52.002;5.956;2023-02-24T00:48:47;2.70;;;1.58;;
39044;SDS011;52192;52.002;5.956;2023-02-24T00:51:14;2.88;;;1.60;;
39044;SDS011;52192;52.002;5.956;2023-02-24T00:53:42;5.15;;;1.13;;
39044;SDS011;52192;52.002;5.956;2023-02-24T00:56:09;3.33;;;1.40;;
39044;SDS011;52192;52.002;5.956;2023-02-24T00:58:40;1.35;;;1.00;;
39044;SDS011;52192;52.002;5.956;2023-02-24T01:01:13;4.70;;;1.02;;
39044;SDS011;52192;52.002;5.956;2023-02-24T01:03:41;4.40;;;1.40;;
39044;SDS011;52192;52.002;5.956;2023-02-24T01:06:13;1.33;;;1.05;;
39044;SDS011;52192;52.002;5.956;2023-02-24T01:08:39;1.88;;;1.15;;
39044;SDS011;52192;52.002;5.956;2023-02-24T01:11:12;2.40;;;1.60;;
39044;SDS011;52192;52.002;5.956;2023-02-24T01:13:57;5.70;;;1.35;;
39044;SDS011;52192;52.002;5.956;2023-02-24T01:16:23;3.15;;;1.50;;
39044;SDS011;52192;52.002;5.956;2023-02-24T01:18:49;3.70;;;1.30;;
39044;SDS011;52192;52.002;5.956;2023-02-24T01:21:15;3.25;;;1.63;;
39044;SDS011;52192;52.002;5.956;2023-02-24T01:23:41;5.15;;;1.60;;
39044;SDS011;52192;52.002;5.956;2023-02-24T01:26:10;2.58;;;0.95;;
39044;SDS011;52192;52.002;5.956;2023-02-24T01:28:36;3.25;;;1.77;;
39044;SDS011;52192;52.002;5.956;2023-02-24T01:31:02;1.80;;;1.20;;
39044;SDS011;52192;52.002;5.956;2023-02-24T01:33:29;2.13;;;1.67;;
39044;SDS011;52192;52.002;5.956;2023-02-24T01:36:06;4.40;;;1.35;;
39044;SDS011;52192;52.002;5.956;2023-02-24T01:38:33;5.25;;;1.38;;
39044;SDS011;52192;52.002;5.956;2023-02-24T01:41:00;2.67;;;1.10;;
39044;SDS011;52192;52.002;5.956;2023-02-24T01:43:50;2.30;;;0.88;;
39044;SDS011;52192;52.002;5.956;2023-02-24T01:46:19;1.58;;;1.13;;
39044;SDS011;52192;52.002;5.956;2023-02-24T01:48:49;3.90;;;1.55;;
39044;SDS011;52192;52.002;5.956;2023-02-24T01:51:19;2.47;;;1.70;;
39044;SDS011;52192;52.002;5.956;2023-02-24T01:53:44;3.78;;;1.10;;
39044;SDS011;52192;52.002;5.956;2023-02-24T01:56:10;3.60;;;1.52;;
39044;SDS011;52192;52.002;5.956;2023-02-24T01:58:38;6.38;;;0.95;;
39044;SDS011;52192;52.002;5.956;2023-02-24T02:01:05;2.20;;;1.58;;
39044;SDS011;52192;52.002;5.956;2023-02-24T02:03:36;1.73;;;1.45;;
39044;SDS011;52192;52.002;5.956;2023-02-24T02:06:09;3.90;;;1.58;;
39044;SDS011;52192;52.002;5.956;2023-02-24T02:08:38;6.65;;;1.50;;
39044;SDS011;52192;52.002;5.956;2023-02-24T02:11:06;5.57;;;1.58;;
39044;SDS011;52192;52.002;5.956;2023-02-24T02:13:41;3.88;;;1.80;;
39044;SDS011;52192;52.002;5.956;2023-02-24T02:39:13;1.90;;;1.13;;
39044;SDS011;52192;52.002;5.956;2023-02-24T02:44:35;2.70;;;1.10;;
39044;SDS011;52192;52.002;5.956;2023-02-24T02:47:11;4.07;;;1.20;;
39044;SDS011;52192;52.002;5.956;2023-02-24T02:49:44;2.47;;;1.17;;
39044;SDS011;52192;52.002;5.956;2023-02-24T02:52:16;9.68;;;1.35;;
39044;SDS011;52192;52.002;5.956;2023-02-24T02:55:08;3.67;;;2.05;;
39044;SDS011;52192;52.002;5.956;2023-02-24T02:57:40;5.18;;;1.38;;
39044;SDS011;52192;52.002;5.956;2023-02-24T03:00:13;5.22;;;1.33;;
39044;SDS011;52192;52.002;5.956;2023-02-24T03:02:51;6.07;;;1.40;;
39044;SDS011;52192;52.002;5.956;2023-02-24T03:05:23;1.95;;;1.33;;
39044;SDS011;52192;52.002;5.956;2023-02-24T03:07:53;2.42;;;1.35;;
39044;SDS011;52192;52.002;5.956;2023-02-24T03:10:24;3.20;;;1.30;;
39044;SDS011;52192;52.002;5.956;2023-02-24T03:12:52;4.97;;;1.75;;
39044;SDS011;52192;52.002;5.956;2023-02-24T03:15:21;3.15;;;1.25;;
39044;SDS011;52192;52.002;5.956;2023-02-24T03:18:13;1.42;;;1.17;;
39044;SDS011;52192;52.002;5.956;2023-02-24T03:20:51;1.63;;;0.85;;
39044;SDS011;52192;52.002;5.956;2023-02-24T03:23:23;2.03;;;1.25;;
39044;SDS011;52192;52.002;5.956;2023-02-24T03:26:00;3.95;;;1.00;;
39044;SDS011;52192;52.002;5.956;2023-02-24T03:31:51;3.22;;;1.48;;
39044;SDS011;52192;52.002;5.956;2023-02-24T03:37:06;4.57;;;1.58;;
39044;SDS011;52192;52.002;5.956;2023-02-24T03:39:32;3.45;;;1.17;;
39044;SDS011;52192;52.002;5.956;2023-02-24T03:42:31;5.38;;;1.27;;
39044;SDS011;52192;52.002;5.956;2023-02-24T03:44:52;1.55;;;1.05;;
39044;SDS011;52192;52.002;5.956;2023-02-24T03:47:22;4.72;;;1.38;;
39044;SDS011;52192;52.002;5.956;2023-02-24T03:49:48;2.15;;;0.88;;
39044;SDS011;52192;52.002;5.956;2023-02-24T03:52:25;2.95;;;1.55;;
39044;SDS011;52192;52.002;5.956;2023-02-24T04:06:28;2.10;;;0.98;;
39044;SDS011;52192;52.002;5.956;2023-02-24T04:09:14;4.75;;;0.93;;
39044;SDS011;52192;52.002;5.956;2023-02-24T04:12:06;9.85;;;1.77;;
39044;SDS011;52192;52.002;5.956;2023-02-24T04:15:03;1.60;;;1.08;;
39044;SDS011;52192;52.002;5.956;2023-02-24T04:17:49;2.50;;;1.13;;
39044;SDS011;52192;52.002;5.956;2023-02-24T04:20:20;2.60;;;0.95;;
39044;SDS011;52192;52.002;5.956;2023-02-24T04:22:50;1.67;;;1.10;;
39044;SDS011;52192;52.002;5.956;2023-02-24T04:25:19;9.30;;;1.20;;
39044;SDS011;52192;52.002;5.956;2023-02-24T04:27:49;2.08;;;0.63;;
39044;SDS011;52192;52.002;5.956;2023-02-24T04:30:21;1.13;;;0.82;;
39044;SDS011;52192;52.002;5.956;2023-02-24T04:32:50;2.30;;;1.23;;
39044;SDS011;52192;52.002;5.956;2023-02-24T04:35:18;4.82;;;1.63;;
39044;SDS011;52192;52.002;5.956;2023-02-24T04:37:45;3.13;;;1.17;;
39044;SDS011;52192;52.002;5.956;2023-02-24T04:40:14;1.63;;;1.02;;
39044;SDS011;52192;52.002;5.956;2023-02-24T04:42:42;6.30;;;1.00;;
39044;SDS011;52192;52.002;5.956;2023-02-24T04:45:13;5.65;;;1.35;;
39044;SDS011;52192;52.002;5.956;2023-02-24T04:47:44;1.10;;;1.00;;
39044;SDS011;52192;52.002;5.956;2023-02-24T04:50:15;2.65;;;1.13;;
39044;SDS011;52192;52.002;5.956;2023-02-24T04:52:50;2.25;;;0.75;;
39044;SDS011;52192;52.002;5.956;2023-02-24T04:55:18;1.35;;;0.88;;
39044;SDS011;52192;52.002;5.956;2023-02-24T04:57:46;4.25;;;1.00;;
39044;SDS011;52192;52.002;5.956;2023-02-24T05:00:21;1.20;;;1.10;;
39044;SDS011;52192;52.002;5.956;2023-02-24T05:02:51;7.03;;;1.38;;
39044;SDS011;52192;52.002;5.956;2023-02-24T05:05:19;1.33;;;0.90;;
39044;SDS011;52192;52.002;5.956;2023-02-24T05:07:53;5.40;;;1.75;;
39044;SDS011;52192;52.002;5.956;2023-02-24T05:10:20;7.55;;;1.63;;
39044;SDS011;52192;52.002;5.956;2023-02-24T05:12:51;0.90;;;0.90;;
39044;SDS011;52192;52.002;5.956;2023-02-24T05:15:24;2.97;;;1.65;;
39044;SDS011;52192;52.002;5.956;2023-02-24T05:17:57;3.58;;;1.73;;
39044;SDS011;52192;52.002;5.956;2023-02-24T05:20:24;11.45;;;2.13;;
39044;SDS011;52192;52.002;5.956;2023-02-24T05:23:09;3.10;;;1.48;;
39044;SDS011;52192;52.002;5.956;2023-02-24T05:25:35;3.15;;;1.40;;
39044;SDS011;52192;52.002;5.956;2023-02-24T05:28:04;4.35;;;1.65;;
39044;SDS011;52192;52.002;5.956;2023-02-24T05:30:31;2.67;;;1.55;;
39044;SDS011;52192;52.002;5.956;2023-02-24T05:32:57;4.53;;;2.42;;
39044;SDS011;52192;52.002;5.956;2023-02-24T05:35:23;2.90;;;2.17;;
39044;SDS011;52192;52.002;5.956;2023-02-24T05:37:49;2.90;;;1.30;;
39044;SDS011;52192;52.002;5.956;2023-02-24T05:40:16;2.30;;;1.23;;
39044;SDS011;52192;52.002;5.956;2023-02-24T05:42:46;3.65;;;2.10;;
39044;SDS011;52192;52.002;5.956;2023-02-24T05:45:12;6.38;;;2.13;;
39044;SDS011;52192;52.002;5.956;2023-02-24T05:47:38;7.90;;;2.00;;
39044;SDS011;52192;52.002;5.956;2023-02-24T05:50:04;14.63;;;1.67;;
39044;SDS011;52192;52.002;5.956;2023-02-24T05:52:33;5.88;;;1.63;;
39044;SDS011;52192;52.002;5.956;2023-02-24T05:55:01;7.75;;;1.90;;
39044;SDS011;52192;52.002;5.956;2023-02-24T05:57:30;5.05;;;1.63;;
39044;SDS011;52192;52.002;5.956;2023-02-24T05:59:59;5.53;;;1.92;;
39044;SDS011;52192;52.002;5.956;2023-02-24T06:02:34;5.25;;;2.20;;
39044;SDS011;52192;52.002;5.956;2023-02-24T06:05:01;5.28;;;1.70;;
39044;SDS011;52192;52.002;5.956;2023-02-24T06:07:29;2.17;;;1.85;;
39044;SDS011;52192;52.002;5.956;2023-02-24T06:09:59;4.25;;;1.38;;
39044;SDS011;52192;52.002;5.956;2023-02-24T06:12:32;2.53;;;1.40;;
39044;SDS011;52192;52.002;5.956;2023-02-24T06:14:58;6.97;;;1.55;;
39044;SDS011;52192;52.002;5.956;2023-02-24T06:17:24;2.50;;;1.35;;
39044;SDS011;52192;52.002;5.956;2023-02-24T06:19:51;4.78;;;2.33;;
39044;SDS011;52192;52.002;5.956;2023-02-24T06:22:19;6.63;;;2.55;;
39044;SDS011;52192;52.002;5.956;2023-02-24T06:24:47;1.75;;;1.38;;
39044;SDS011;52192;52.002;5.956;2023-02-24T06:27:14;7.50;;;2.67;;
39044;SDS011;52192;52.002;5.956;2023-02-24T06:29:45;4.95;;;2.13;;
39044;SDS011;52192;52.002;5.956;2023-02-24T06:32:16;12.32;;;2.35;;
39044;SDS011;52192;52.002;5.956;2023-02-24T06:34:43;4.05;;;1.67;;
39044;SDS011;52192;52.002;5.956;2023-02-24T06:37:10;7.63;;;1.70;;
39044;SDS011;52192;52.002;5.956;2023-02-24T06:39:37;5.03;;;2.05;;
39044;SDS011;52192;52.002;5.956;2023-02-24T06:42:03;4.90;;;1.35;;
39044;SDS011;52192;52.002;5.956;2023-02-24T06:44:34;3.60;;;1.92;;
39044;SDS011;52192;52.002;5.956;2023-02-24T06:47:02;4.00;;;1.92;;
39044;SDS011;52192;52.002;5.956;2023-02-24T06:49:29;3.83;;;1.80;;
39044;SDS011;52192;52.002;5.956;2023-02-24T06:51:55;6.50;;;1.92;;
39044;SDS011;52192;52.002;5.956;2023-02-24T06:54:22;8.10;;;1.55;;
39044;SDS011;52192;52.002;5.956;2023-02-24T06:56:52;2.83;;;1.58;;
39044;SDS011;52192;52.002;5.956;2023-02-24T06:59:18;2.58;;;1.80;;
39044;SDS011;52192;52.002;5.956;2023-02-24T07:01:47;4.07;;;1.73;;
39044;SDS011;52192;52.002;5.956;2023-02-24T07:04:14;3.72;;;1.80;;
39044;SDS011;52192;52.002;5.956;2023-02-24T07:06:40;4.90;;;2.92;;
39044;SDS011;52192;52.002;5.956;2023-02-24T07:09:21;2.05;;;1.35;;
39044;SDS011;52192;52.002;5.956;2023-02-24T07:11:49;3.30;;;1.47;;
39044;SDS011;52192;52.002;5.956;2023-02-24T07:14:20;6.43;;;2.03;;
39044;SDS011;52192;52.002;5.956;2023-02-24T07:16:47;1.92;;;1.45;;
39044;SDS011;52192;52.002;5.956;2023-02-24T07:19:18;4.60;;;2.03;;
39044;SDS011;52192;52.002;5.956;2023-02-24T07:21:46;6.38;;;2.00;;
39044;SDS011;52192;52.002;5.956;2023-02-24T07:24:14;4.20;;;1.80;;
39044;SDS011;52192;52.002;5.956;2023-02-24T07:26:53;2.58;;;1.23;;
39044;SDS011;52192;52.002;5.956;2023-02-24T07:29:27;8.55;;;2.10;;
39044;SDS011;52192;52.002;5.956;2023-02-24T07:31:56;4.57;;;1.83;;
39044;SDS011;52192;52.002;5.956;2023-02-24T07:34:25;2.63;;;1.92;;
39044;SDS011;52192;52.002;5.956;2023-02-24T07:36:52;4.68;;;1.95;;
39044;SDS011;52192;52.002;5.956;2023-02-24T07:39:19;3.53;;;2.08;;
39044;SDS011;52192;52.002;5.956;2023-02-24T07:41:50;2.80;;;1.90;;
39044;SDS011;52192;52.002;5.956;2023-02-24T07:44:17;3.88;;;1.80;;
39044;SDS011;52192;52.002;5.956;2023-02-24T07:46:44;3.95;;;1.58;;
39044;SDS011;52192;52.002;5.956;2023-02-24T07:49:13;3.47;;;2.03;;
39044;SDS011;52192;52.002;5.956;2023-02-24T07:51:42;6.82;;;2.63;;
39044;SDS011;52192;52.002;5.956;2023-02-24T07:54:08;2.38;;;1.08;;
39044;SDS011;52192;52.002;5.956;2023-02-24T07:56:36;5.43;;;1.25;;
39044;SDS011;52192;52.002;5.956;2023-02-24T07:59:10;2.30;;;1.08;;
39044;SDS011;52192;52.002;5.956;2023-02-24T08:01:39;6.80;;;1.90;;
39044;SDS011;52192;52.002;5.956;2023-02-24T08:04:13;7.22;;;1.85;;
39044;SDS011;52192;52.002;5.956;2023-02-24T08:06:41;6.43;;;1.67;;
39044;SDS011;52192;52.002;5.956;2023-02-24T08:11:43;4.53;;;1.48;;
39044;SDS011;52192;52.002;5.956;2023-02-24T08:16:53;3.65;;;1.15;;
39044;SDS011;52192;52.002;5.956;2023-02-24T08:19:23;5.47;;;1.27;;
39044;SDS011;52192;52.002;5.956;2023-02-24T08:21:56;3.78;;;1.33;;
39044;SDS011;52192;52.002;5.956;2023-02-24T08:24:44;6.65;;;1.90;;
39044;SDS011;52192;52.002;5.956;2023-02-24T08:27:14;2.67;;;1.52;;
39044;SDS011;52192;52.002;5.956;2023-02-24T08:29:47;3.58;;;1.30;;
39044;SDS011;52192;52.002;5.956;2023-02-24T08:34:57;7.70;;;1.20;;
39044;SDS011;52192;52.002;5.956;2023-02-24T08:37:27;10.98;;;1.27;;
39044;SDS011;52192;52.002;5.956;2023-02-24T08:39:58;5.05;;;2.45;;
39044;SDS011;52192;52.002;5.956;2023-02-24T08:42:24;4.47;;;2.00;;
39044;SDS011;52192;52.002;5.956;2023-02-24T08:44:59;2.88;;;1.60;;
39044;SDS011;52192;52.002;5.956;2023-02-24T08:47:26;2.97;;;1.48;;
39044;SDS011;52192;52.002;5.956;2023-02-24T08:49:57;2.85;;;1.40;;
39044;SDS011;52192;52.002;5.956;2023-02-24T08:52:24;3.10;;;1.38;;
39044;SDS011;52192;52.002;5.956;2023-02-24T08:54:51;1.55;;;1.08;;
39044;SDS011;52192;52.002;5.956;2023-02-24T08:57:23;4.35;;;1.10;;
39044;SDS011;52192;52.002;5.956;2023-02-24T08:59:50;1.90;;;1.15;;
39044;SDS011;52192;52.002;5.956;2023-02-24T09:02:22;6.15;;;1.20;;
39044;SDS011;52192;52.002;5.956;2023-02-24T09:04:57;1.90;;;0.80;;
39044;SDS011;52192;52.002;5.956;2023-02-24T09:07:24;1.33;;;1.13;;
39044;SDS011;52192;52.002;5.956;2023-02-24T09:09:59;1.58;;;0.82;;
39044;SDS011;52192;52.002;5.956;2023-02-24T09:12:26;5.72;;;1.08;;
39044;SDS011;52192;52.002;5.956;2023-02-24T09:14:55;3.53;;;1.70;;
39044;SDS011;52192;52.002;5.956;2023-02-24T09:20:09;3.67;;;2.00;;
39044;SDS011;52192;52.002;5.956;2023-02-24T09:22:59;1.30;;;1.15;;
39044;SDS011;52192;52.002;5.956;2023-02-24T09:25:32;5.60;;;1.27;;
39044;SDS011;52192;52.002;5.956;2023-02-24T09:28:11;6.38;;;1.38;;
39044;SDS011;52192;52.002;5.956;2023-02-24T09:30:51;3.03;;;0.98;;
39044;SDS011;52192;52.002;5.956;2023-02-24T09:33:35;1.85;;;1.35;;
39044;SDS011;52192;52.002;5.956;2023-02-24T09:36:06;1.55;;;1.00;;
39044;SDS011;52192;52.002;5.956;2023-02-24T09:38:44;2.28;;;1.52;;
39044;SDS011;52192;52.002;5.956;2023-02-24T09:41:33;10.63;;;2.08;;
39044;SDS011;52192;52.002;5.956;2023-02-24T09:44:39;3.00;;;1.60;;
39044;SDS011;52192;52.002;5.956;2023-02-24T09:52:48;3.80;;;1.20;;
39044;SDS011;52192;52.002;5.956;2023-02-24T10:01:44;9.07;;;1.80;;
39044;SDS011;52192;52.002;5.956;2023-02-24T10:10:23;6.80;;;1.67;;
39044;SDS011;52192;52.002;5.956;2023-02-24T10:12:55;4.25;;;1.88;;
39044;SDS011;52192;52.002;5.956;2023-02-24T10:15:27;11.13;;;1.98;;
39044;SDS011;52192;52.002;5.956;2023-02-24T10:18:24;3.20;;;1.20;;
39044;SDS011;52192;52.002;5.956;2023-02-24T10:21:17;2.67;;;1.58;;
39044;SDS011;52192;52.002;5.956;2023-02-24T10:27:13;3.45;;;1.42;;
39044;SDS011;52192;52.002;5.956;2023-02-24T10:32:48;2.08;;;1.65;;
39044;SDS011;52192;52.002;5.956;2023-02-24T10:35:19;3.20;;;1.67;;
39044;SDS011;52192;52.002;5.956;2023-02-24T10:37:50;3.53;;;1.63;;
39044;SDS011;52192;52.002;5.956;2023-02-24T10:40:18;1.58;;;1.48;;
39044;SDS011;52192;52.002;5.956;2023-02-24T10:43:07;2.45;;;1.38;;
39044;SDS011;52192;52.002;5.956;2023-02-24T10:45:42;7.35;;;2.03;;
39044;SDS011;52192;52.002;5.956;2023-02-24T10:48:09;3.10;;;1.88;;
39044;SDS011;52192;52.002;5.956;2023-02-24T10:50:48;6.13;;;1.63;;
39044;SDS011;52192;52.002;5.956;2023-02-24T10:53:18;4.43;;;2.00;;
39044;SDS011;52192;52.002;5.956;2023-02-24T10:55:50;3.10;;;1.75;;
39044;SDS011;52192;52.002;5.956;2023-02-24T11:01:16;2.72;;;1.67;;
39044;SDS011;52192;52.002;5.956;2023-02-24T11:04:04;8.45;;;2.55;;
39044;SDS011;52192;52.002;5.956;2023-02-24T11:11:51;11.80;;;2.53;;
39044;SDS011;52192;52.002;5.956;2023-02-24T11:17:54;3.38;;;2.17;;
39044;SDS011;52192;52.002;5.956;2023-02-24T11:23:10;7.00;;;2.42;;
39044;SDS011;52192;52.002;5.956;2023-02-24T11:25:40;3.63;;;2.15;;
39044;SDS011;52192;52.002;5.956;2023-02-24T11:36:25;3.60;;;1.98;;
39044;SDS011;52192;52.002;5.956;2023-02-24T11:41:56;5.70;;;2.63;;
39044;SDS011;52192;52.002;5.956;2023-02-24T11:44:28;4.25;;;2.50;;
39044;SDS011;52192;52.002;5.956;2023-02-24T11:47:05;5.30;;;2.55;;
39044;SDS011;52192;52.002;5.956;2023-02-24T11:49:41;3.97;;;2.17;;
39044;SDS011;52192;52.002;5.956;2023-02-24T11:52:19;3.83;;;2.15;;
39044;SDS011;52192;52.002;5.956;2023-02-24T11:54:55;5.32;;;2.42;;
39044;SDS011;52192;52.002;5.956;2023-02-24T11:57:26;6.35;;;2.47;;
39044;SDS011;52192;52.002;5.956;2023-02-24T12:00:04;5.03;;;2.72;;
39044;SDS011;52192;52.002;5.956;2023-02-24T12:02:45;7.47;;;2.85;;
39044;SDS011;52192;52.002;5.956;2023-02-24T12:05:21;3.85;;;2.17;;
39044;SDS011;52192;52.002;5.956;2023-02-24T12:07:54;4.50;;;2.00;;
39044;SDS011;52192;52.002;5.956;2023-02-24T12:10:28;5.03;;;2.75;;
39044;SDS011;52192;52.002;5.956;2023-02-24T12:15:25;4.30;;;2.55;;
39044;SDS011;52192;52.002;5.956;2023-02-24T12:20:59;4.25;;;2.20;;
39044;SDS011;52192;52.002;5.956;2023-02-24T12:23:40;5.47;;;2.10;;
39044;SDS011;52192;52.002;5.956;2023-02-24T12:34:42;2.05;;;1.70;;
39044;SDS011;52192;52.002;5.956;2023-02-24T12:40:55;3.80;;;2.28;;
39044;SDS011;52192;52.002;5.956;2023-02-24T12:48:46;3.60;;;1.77;;
39044;SDS011;52192;52.002;5.956;2023-02-24T12:51:27;1.90;;;1.60;;
39044;SDS011;52192;52.002;5.956;2023-02-24T12:54:12;9.30;;;2.15;;
39044;SDS011;52192;52.002;5.956;2023-02-24T12:59:33;2.33;;;1.45;;
39044;SDS011;52192;52.002;5.956;2023-02-24T13:02:05;4.95;;;2.00;;
39044;SDS011;52192;52.002;5.956;2023-02-24T13:07:09;5.18;;;1.95;;
39044;SDS011;52192;52.002;5.956;2023-02-24T13:10:59;7.53;;;2.38;;
39044;SDS011;52192;52.002;5.956;2023-02-24T13:15:30;2.65;;;1.88;;
39044;SDS011;52192;52.002;5.956;2023-02-24T13:17:57;3.10;;;2.17;;
39044;SDS011;52192;52.002;5.956;2023-02-24T13:20:33;4.30;;;2.05;;
39044;SDS011;52192;52.002;5.956;2023-02-24T13:23:03;4.80;;;2.15;;
39044;SDS011;52192;52.002;5.956;2023-02-24T13:25:51;3.90;;;2.40;;
39044;SDS011;52192;52.002;5.956;2023-02-24T13:28:28;3.35;;;2.03;;
39044;SDS011;52192;52.002;5.956;2023-02-24T13:31:01;2.78;;;1.77;;
39044;SDS011;52192;52.002;5.956;2023-02-24T13:33:37;4.28;;;2.33;;
39044;SDS011;52192;52.002;5.956;2023-02-24T13:38:39;3.55;;;2.15;;
39044;SDS011;52192;52.002;5.956;2023-02-24T13:41:15;5.80;;;2.42;;
39044;SDS011;52192;52.002;5.956;2023-02-24T13:46:20;10.35;;;2.45;;
39044;SDS011;52192;52.002;5.956;2023-02-24T13:51:48;4.32;;;2.13;;
39044;SDS011;52192;52.002;5.956;2023-02-24T14:03:08;2.33;;;1.42;;
39044;SDS011;52192;52.002;5.956;2023-02-24T14:05:36;4.43;;;2.03;;
39044;SDS011;52192;52.002;5.956;2023-02-24T14:08:05;6.65;;;2.78;;
39044;SDS011;52192;52.002;5.956;2023-02-24T14:10:31;8.63;;;2.38;;
39044;SDS011;52192;52.002;5.956;2023-02-24T14:15:30;5.75;;;2.63;;
39044;SDS011;52192;52.002;5.956;2023-02-24T14:18:03;10.95;;;2.17;;
39044;SDS011;52192;52.002;5.956;2023-02-24T14:20:31;5.55;;;2.47;;
39044;SDS011;52192;52.002;5.956;2023-02-24T14:22:58;5.20;;;2.35;;
39044;SDS011;52192;52.002;5.956;2023-02-24T14:25:26;3.72;;;1.30;;
39044;SDS011;52192;52.002;5.956;2023-02-24T14:27:54;2.40;;;1.20;;
39044;SDS011;52192;52.002;5.956;2023-02-24T14:30:23;2.45;;;0.77;;
39044;SDS011;52192;52.002;5.956;2023-02-24T14:32:52;2.20;;;0.65;;
39044;SDS011;52192;52.002;5.956;2023-02-24T14:35:40;2.85;;;0.90;;
39044;SDS011;52192;52.002;5.956;2023-02-24T14:40:57;1.75;;;0.70;;
39044;SDS011;52192;52.002;5.956;2023-02-24T14:43:23;5.40;;;1.00;;
39044;SDS011;52192;52.002;5.956;2023-02-24T14:45:49;6.40;;;1.50;;
39044;SDS011;52192;52.002;5.956;2023-02-24T14:50:50;6.13;;;1.13;;
39044;SDS011;52192;52.002;5.956;2023-02-24T14:53:17;5.07;;;1.00;;
39044;SDS011;52192;52.002;5.956;2023-02-24T14:55:47;2.13;;;0.70;;
39044;SDS011;52192;52.002;5.956;2023-02-24T15:06:00;5.25;;;1.20;;
39044;SDS011;52192;52.002;5.956;2023-02-24T15:08:33;3.72;;;1.38;;
39044;SDS011;52192;52.002;5.956;2023-02-24T15:11:09;3.20;;;1.00;;
39044;SDS011;52192;52.002;5.956;2023-02-24T15:13:40;3.08;;;1.63;;
39044;SDS011;52192;52.002;5.956;2023-02-24T15:16:13;4.55;;;1.33;;
39044;SDS011;52192;52.002;5.956;2023-02-24T15:18:49;3.42;;;1.58;;
39044;SDS011;52192;52.002;5.956;2023-02-24T15:21:21;4.97;;;1.70;;
39044;SDS011;52192;52.002;5.956;2023-02-24T15:24:01;5.18;;;1.35;;
39044;SDS011;52192;52.002;5.956;2023-02-24T15:26:40;5.22;;;1.20;;
39044;SDS011;52192;52.002;5.956;2023-02-24T15:32:02;2.70;;;1.27;;
39044;SDS011;52192;52.002;5.956;2023-02-24T15:34:31;1.75;;;1.08;;
39044;SDS011;52192;52.002;5.956;2023-02-24T15:37:14;4.28;;;1.60;;
39044;SDS011;52192;52.002;5.956;2023-02-24T15:39:47;5.28;;;1.50;;
39044;SDS011;52192;52.002;5.956;2023-02-24T15:45:38;3.58;;;1.23;;
39044;SDS011;52192;52.002;5.956;2023-02-24T15:47:52;1.33;;;0.50;;
39044;SDS011;52192;52.002;5.956;2023-02-24T15:50:20;1.67;;;0.75;;
39044;SDS011;52192;52.002;5.956;2023-02-24T15:52:46;0.55;;;0.38;;
39044;SDS011;52192;52.002;5.956;2023-02-24T15:55:19;0.90;;;0.60;;
39044;SDS011;52192;52.002;5.956;2023-02-24T15:57:46;1.05;;;0.25;;
39044;SDS011;52192;52.002;5.956;2023-02-24T16:00:22;0.90;;;0.70;;
39044;SDS011;52192;52.002;5.956;2023-02-24T16:02:48;0.45;;;0.45;;
39044;SDS011;52192;52.002;5.956;2023-02-24T16:05:14;1.88;;;0.30;;
39044;SDS011;52192;52.002;5.956;2023-02-24T16:07:41;0.50;;;0.50;;
39044;SDS011;52192;52.002;5.956;2023-02-24T16:13:04;1.10;;;0.68;;
39044;SDS011;52192;52.002;5.956;2023-02-24T16:15:32;0.50;;;0.47;;
39044;SDS011;52192;52.002;5.956;2023-02-24T16:18:03;0.90;;;0.32;;
39044;SDS011;52192;52.002;5.956;2023-02-24T16:20:36;1.25;;;0.47;;
39044;SDS011;52192;52.002;5.956;2023-02-24T16:23:03;1.95;;;0.77;;
39044;SDS011;52192;52.002;5.956;2023-02-24T16:25:33;0.50;;;0.50;;
39044;SDS011;52192;52.002;5.956;2023-02-24T16:28:05;1.33;;;0.50;;
39044;SDS011;52192;52.002;5.956;2023-02-24T16:30:30;1.13;;;0.68;;
39044;SDS011;52192;52.002;5.956;2023-02-24T16:32:58;1.42;;;0.50;;
39044;SDS011;52192;52.002;5.956;2023-02-24T16:35:25;1.65;;;0.73;;
39044;SDS011;52192;52.002;5.956;2023-02-24T16:37:52;5.72;;;1.63;;
39044;SDS011;52192;52.002;5.956;2023-02-24T16:40:22;3.88;;;1.38;;
39044;SDS011;52192;52.002;5.956;2023-02-24T16:42:54;1.17;;;1.05;;
39044;SDS011;52192;52.002;5.956;2023-02-24T16:45:20;1.83;;;1.30;;
39044;SDS011;52192;52.002;5.956;2023-02-24T16:47:54;2.35;;;1.08;;
39044;SDS011;52192;52.002;5.956;2023-02-24T16:50:23;1.98;;;0.85;;
39044;SDS011;52192;52.002;5.956;2023-02-24T16:52:54;2.35;;;1.33;;
39044;SDS011;52192;52.002;5.956;2023-02-24T16:55:19;3.83;;;1.15;;
39044;SDS011;52192;52.002;5.956;2023-02-24T16:57:46;3.67;;;0.88;;
39044;SDS011;52192;52.002;5.956;2023-02-24T17:00:13;2.50;;;0.90;;
39044;SDS011;52192;52.002;5.956;2023-02-24T17:02:42;3.90;;;1.30;;
39044;SDS011;52192;52.002;5.956;2023-02-24T17:05:14;0.68;;;0.55;;
39044;SDS011;52192;52.002;5.956;2023-02-24T17:07:44;0.60;;;0.60;;
39044;SDS011;52192;52.002;5.956;2023-02-24T17:10:10;4.00;;;1.38;;
39044;SDS011;52192;52.002;5.956;2023-02-24T17:12:36;2.13;;;0.70;;
39044;SDS011;52192;52.002;5.956;2023-02-24T17:15:02;1.95;;;0.73;;
39044;SDS011;52192;52.002;5.956;2023-02-24T17:17:28;4.03;;;0.80;;
39044;SDS011;52192;52.002;5.956;2023-02-24T17:19:54;2.33;;;1.10;;
39044;SDS011;52192;52.002;5.956;2023-02-24T17:22:19;2.05;;;1.00;;
39044;SDS011;52192;52.002;5.956;2023-02-24T17:24:46;1.63;;;0.88;;
39044;SDS011;52192;52.002;5.956;2023-02-24T17:27:12;0.70;;;0.70;;
39044;SDS011;52192;52.002;5.956;2023-02-24T17:29:38;0.47;;;0.25;;
39044;SDS011;52192;52.002;5.956;2023-02-24T17:32:04;4.03;;;0.85;;
39044;SDS011;52192;52.002;5.956;2023-02-24T17:34:29;1.88;;;1.10;;
39044;SDS011;52192;52.002;5.956;2023-02-24T17:36:56;1.48;;;0.80;;
39044;SDS011;52192;52.002;5.956;2023-02-24T17:39:21;4.97;;;1.27;;
39044;SDS011;52192;52.002;5.956;2023-02-24T17:41:47;1.98;;;1.25;;
39044;SDS011;52192;52.002;5.956;2023-02-24T17:44:13;3.35;;;1.00;;
39044;SDS011;52192;52.002;5.956;2023-02-24T17:46:39;0.82;;;0.60;;
39044;SDS011;52192;52.002;5.956;2023-02-24T17:49:04;1.08;;;0.75;;
39044;SDS011;52192;52.002;5.956;2023-02-24T17:51:30;4.00;;;1.27;;
39044;SDS011;52192;52.002;5.956;2023-02-24T17:53:56;1.13;;;0.68;;
39044;SDS011;52192;52.002;5.956;2023-02-24T17:56:22;1.75;;;0.93;;
39044;SDS011;52192;52.002;5.956;2023-02-24T17:58:48;6.07;;;1.02;;
39044;SDS011;52192;52.002;5.956;2023-02-24T18:01:14;4.97;;;1.35;;
39044;SDS011;52192;52.002;5.956;2023-02-24T18:03:39;3.97;;;0.88;;
39044;SDS011;52192;52.002;5.956;2023-02-24T18:06:06;1.95;;;0.50;;
39044;SDS011;52192;52.002;5.956;2023-02-24T18:08:35;6.45;;;0.52;;